createdAt,value
2022-10-31T00:00:31.046Z,16.50
2022-10-31T00:05:58.781Z,19.87
2022-10-31T00:11:35.330Z,20.40
2022-10-31T00:14:23.349Z,20.07
2022-10-31T00:17:11.539Z,17.57
2022-10-31T00:22:50.767Z,21.00
2022-10-31T00:25:41.892Z,19.97
2022-10-31T00:31:17.775Z,18.10
2022-10-31T00:34:08.858Z,16.70
2022-10-31T00:39:49.441Z,19.03
2022-10-31T00:42:37.994Z,15.30
2022-10-31T00:48:17.471Z,19.97
2022-10-31T00:53:47.599Z,19.63
2022-10-31T00:56:36.434Z,21.13
2022-10-31T01:02:06.415Z,17.83
2022-10-31T01:04:57.805Z,20.63
2022-10-31T01:07:46.886Z,16.83
2022-10-31T01:13:16.349Z,19.90
2022-10-31T01:16:07.130Z,18.70
2022-10-31T01:21:42.123Z,16.93
2022-10-31T01:27:17.729Z,18.17
2022-10-31T01:30:09.297Z,19.90
2022-10-31T01:35:44.958Z,20.23
2022-10-31T01:38:33.381Z,15.70
2022-10-31T01:41:26.677Z,19.77
2022-10-31T01:44:50.499Z,19.40
2022-10-31T01:50:33.662Z,22.33
2022-10-31T01:53:25.960Z,18.50
2022-10-31T01:58:56.054Z,13.10
2022-10-31T02:01:44.090Z,17.03
2022-10-31T02:07:22.586Z,17.13
2022-10-31T02:12:56.273Z,14.50
2022-10-31T02:18:31.473Z,17.87
2022-10-31T02:24:33.656Z,13.80
2022-10-31T02:30:24.492Z,16.03
2022-10-31T02:35:59.864Z,16.87
2022-10-31T02:41:43.151Z,17.20
2022-10-31T02:44:34.331Z,20.00
2022-10-31T02:50:08.521Z,11.93
2022-10-31T02:55:58.592Z,18.00
2022-10-31T03:05:00.197Z,19.03
2022-10-31T03:07:54.661Z,16.40
2022-10-31T03:16:21.250Z,18.70
2022-10-31T03:21:59.760Z,16.50
2022-10-31T03:27:39.299Z,15.37
2022-10-31T03:33:10.589Z,13.37
2022-10-31T03:38:46.233Z,16.30
2022-10-31T03:44:26.785Z,17.73
2022-10-31T03:49:54.225Z,15.33
2022-10-31T03:55:47.245Z,15.43
2022-10-31T04:01:22.854Z,22.30
2022-10-31T04:04:11.680Z,16.37
2022-10-31T04:07:01.941Z,22.53
2022-10-31T04:12:41.070Z,14.03
2022-10-31T04:15:30.910Z,15.67
2022-10-31T04:21:06.778Z,15.87
2022-10-31T04:23:54.879Z,17.97
2022-10-31T04:26:44.188Z,16.10
2022-10-31T04:32:19.931Z,12.40
2022-10-31T04:40:43.374Z,15.77
2022-10-31T04:43:32.724Z,13.53
2022-10-31T04:49:06.218Z,15.60
2022-10-31T04:51:55.673Z,13.13
2022-10-31T04:54:44.065Z,15.23
2022-10-31T05:00:31.715Z,17.57
2022-10-31T05:03:20.002Z,13.73
2022-10-31T05:06:08.657Z,17.67
2022-10-31T05:11:44.971Z,14.90
2022-10-31T05:14:34.087Z,13.83
2022-10-31T05:17:21.883Z,16.57
2022-10-31T05:22:55.242Z,12.37
2022-10-31T05:31:14.948Z,13.03
2022-10-31T05:37:05.595Z,22.17
2022-10-31T05:39:54.849Z,15.50
2022-10-31T05:45:27.265Z,13.53
2022-10-31T05:51:03.247Z,12.80
2022-10-31T05:53:51.529Z,18.50
2022-10-31T05:57:01.314Z,11.97
2022-10-31T05:59:54.767Z,12.27
2022-10-31T06:05:20.170Z,13.37
2022-10-31T06:08:09.144Z,12.33
2022-10-31T06:13:44.909Z,12.80
2022-10-31T06:19:15.894Z,15.93
2022-10-31T06:22:04.236Z,14.97
2022-10-31T06:27:34.816Z,10.77
2022-10-31T06:33:11.773Z,13.57
2022-10-31T06:41:32.528Z,15.30
2022-10-31T06:44:20.919Z,13.60
2022-10-31T06:49:59.485Z,13.50
2022-10-31T06:55:53.428Z,15.47
2022-10-31T07:01:21.990Z,16.37
2022-10-31T07:06:53.956Z,17.30
2022-10-31T07:09:41.931Z,17.93
2022-10-31T07:15:18.189Z,15.83
2022-10-31T07:20:55.496Z,16.43
2022-10-31T07:23:44.526Z,16.27
2022-10-31T07:29:16.957Z,13.50
2022-10-31T07:34:48.202Z,16.13
2022-10-31T07:43:20.723Z,14.53
2022-10-31T07:48:55.006Z,15.23
2022-10-31T07:54:25.008Z,13.40
2022-10-31T08:00:01.571Z,16.53
2022-10-31T08:05:38.298Z,13.53
2022-10-31T08:11:14.663Z,17.43
2022-10-31T08:16:46.303Z,16.60
2022-10-31T08:22:16.999Z,14.40
2022-10-31T08:27:45.856Z,16.40
2022-10-31T08:33:15.933Z,16.73
2022-10-31T08:39:01.992Z,16.13
2022-10-31T08:44:33.438Z,14.10
2022-10-31T08:50:11.025Z,14.23
2022-10-31T08:55:42.342Z,18.73
2022-10-31T09:01:10.423Z,18.70
2022-10-31T09:03:59.457Z,18.23
2022-10-31T09:12:25.535Z,21.23
2022-10-31T09:15:14.204Z,18.90
2022-10-31T09:18:03.281Z,15.70
2022-10-31T09:20:52.354Z,16.23
2022-10-31T09:26:21.862Z,16.30
2022-10-31T09:29:10.935Z,15.90
2022-10-31T09:34:47.191Z,14.97
2022-10-31T09:40:19.620Z,21.17
2022-10-31T09:46:02.334Z,18.23
2022-10-31T09:51:53.322Z,15.17
2022-10-31T09:57:37.501Z,16.87
2022-10-31T10:03:11.646Z,18.03
2022-10-31T10:08:40.707Z,16.57
2022-10-31T10:14:34.092Z,16.33
2022-10-31T10:23:37.302Z,16.10
2022-10-31T10:29:21.487Z,17.27
2022-10-31T10:32:12.766Z,19.47
2022-10-31T10:37:44.445Z,15.17
2022-10-31T10:40:35.999Z,18.33
2022-10-31T10:49:21.674Z,20.37
2022-10-31T10:55:04.260Z,17.47
2022-10-31T10:58:00.729Z,18.63
2022-10-31T11:03:36.816Z,21.17
2022-10-31T11:06:27.053Z,19.10
2022-10-31T11:12:10.426Z,20.47
2022-10-31T11:17:54.515Z,17.73
2022-10-31T11:20:42.656Z,19.30
2022-10-31T11:26:23.564Z,21.90
2022-10-31T11:32:05.241Z,23.43
2022-10-31T11:37:46.647Z,14.83
2022-10-31T11:43:18.049Z,23.40
2022-10-31T11:48:55.769Z,22.87
2022-10-31T11:54:29.945Z,22.47
2022-10-31T11:57:39.879Z,24.97
2022-10-31T12:03:52.504Z,19.53
2022-10-31T12:09:31.552Z,26.43
2022-10-31T12:18:55.360Z,18.03
2022-10-31T12:25:20.666Z,21.07
2022-10-31T12:31:44.054Z,28.37
2022-10-31T12:37:53.525Z,27.63
2022-10-31T12:40:53.631Z,23.17
2022-10-31T12:43:47.252Z,19.70
2022-10-31T12:49:43.274Z,26.83
2022-10-31T12:55:49.173Z,23.03
2022-10-31T13:01:26.566Z,25.23
2022-10-31T13:07:10.847Z,27.83
2022-10-31T13:13:00.545Z,25.57
2022-10-31T13:18:33.164Z,22.63
2022-10-31T13:27:01.173Z,22.67
2022-10-31T13:32:44.877Z,29.17
2022-10-31T13:38:30.632Z,22.63
2022-10-31T13:44:12.922Z,19.80
2022-10-31T13:49:48.995Z,22.47
2022-10-31T13:52:38.989Z,27.03
2022-10-31T13:55:42.053Z,24.43
2022-10-31T13:58:31.696Z,21.93
2022-10-31T14:01:23.132Z,23.07
2022-10-31T14:07:14.893Z,18.73
2022-10-31T14:12:55.913Z,18.63
2022-10-31T14:15:47.764Z,18.93
2022-10-31T14:18:38.532Z,16.40
2022-10-31T14:21:32.518Z,16.47
2022-10-31T14:24:35.419Z,21.83
2022-10-31T14:30:40.377Z,19.53
2022-10-31T14:33:29.602Z,20.27
2022-10-31T14:39:08.803Z,17.67
2022-10-31T14:45:10.690Z,18.80
2022-10-31T14:51:00.617Z,15.77
2022-10-31T14:56:34.311Z,19.43
2022-10-31T15:05:23.246Z,20.43
2022-10-31T15:08:18.598Z,17.40
2022-10-31T15:11:15.824Z,19.87
2022-10-31T15:16:48.595Z,17.30
2022-10-31T15:19:47.047Z,20.63
2022-10-31T15:22:36.074Z,22.90
2022-10-31T15:28:23.510Z,18.73
2022-10-31T15:34:08.226Z,20.60
2022-10-31T15:42:26.734Z,20.53
2022-10-31T15:45:24.644Z,24.70
2022-10-31T15:51:16.301Z,20.80
2022-10-31T15:56:46.691Z,16.23
2022-10-31T16:02:20.275Z,28.93
2022-10-31T16:05:20.608Z,17.13
2022-10-31T16:08:26.537Z,23.03
2022-10-31T16:11:22.336Z,17.37
2022-10-31T16:14:23.209Z,20.60
2022-10-31T16:17:13.081Z,18.60
2022-10-31T16:22:51.762Z,22.87
2022-10-31T16:25:41.288Z,15.97
2022-10-31T16:28:33.070Z,17.93
2022-10-31T16:37:01.616Z,17.57
2022-10-31T16:42:33.706Z,27.47
2022-10-31T16:45:24.574Z,25.43
2022-10-31T16:53:52.347Z,57.43
2022-10-31T16:59:23.183Z,27.70
2022-10-31T17:05:11.795Z,24.73
2022-10-31T17:10:46.689Z,21.63
2022-10-31T17:16:17.732Z,19.63
2022-10-31T17:22:04.416Z,29.67
2022-10-31T17:27:33.563Z,27.03
2022-10-31T17:35:56.745Z,23.83
2022-10-31T17:41:34.346Z,31.23
2022-10-31T17:47:09.781Z,27.90
2022-10-31T17:52:36.543Z,23.20
2022-10-31T17:58:08.096Z,22.57
2022-10-31T18:03:45.046Z,23.03
2022-10-31T18:14:53.073Z,28.50
2022-10-31T18:20:29.565Z,32.13
2022-10-31T18:26:06.256Z,33.17
2022-10-31T18:40:04.102Z,33.77
2022-10-31T18:45:45.944Z,32.13
2022-10-31T18:53:54.200Z,25.60
2022-10-31T18:56:43.956Z,33.07
2022-10-31T19:02:18.998Z,29.43
2022-10-31T19:05:07.843Z,29.10
2022-10-31T19:07:57.550Z,30.60
2022-10-31T19:13:32.219Z,37.53
2022-10-31T19:16:21.440Z,32.27
2022-10-31T19:21:58.174Z,30.03
2022-10-31T19:32:59.613Z,23.80
2022-10-31T19:41:26.708Z,29.57
2022-10-31T19:46:59.403Z,26.97
2022-10-31T19:52:27.879Z,23.53
2022-10-31T19:58:04.379Z,24.57
2022-10-31T20:03:39.698Z,24.90
2022-10-31T20:09:13.597Z,27.47
2022-10-31T20:14:46.161Z,25.40
2022-10-31T20:20:23.790Z,26.63
2022-10-31T20:25:58.926Z,23.97
2022-10-31T20:34:23.765Z,22.53
2022-10-31T20:37:11.936Z,23.63
2022-10-31T20:40:00.472Z,22.60
2022-10-31T20:45:39.404Z,21.37
2022-10-31T20:48:27.455Z,21.43
2022-10-31T20:54:07.672Z,23.03
2022-10-31T20:59:54.125Z,24.37
2022-10-31T21:05:25.692Z,23.47
2022-10-31T21:13:55.694Z,20.63
2022-10-31T21:16:45.669Z,26.57
2022-10-31T21:22:25.458Z,23.50
2022-10-31T21:28:05.691Z,22.90
2022-10-31T21:30:54.216Z,24.83
2022-10-31T21:36:28.186Z,23.03
2022-10-31T21:39:38.487Z,21.30
2022-10-31T21:45:24.976Z,32.13
2022-10-31T21:51:13.678Z,26.20
2022-10-31T21:54:19.935Z,25.70
2022-10-31T21:57:08.031Z,26.20
2022-10-31T22:02:46.492Z,28.43
2022-10-31T22:08:26.474Z,25.73
2022-10-31T22:14:02.081Z,29.90
2022-10-31T22:16:51.038Z,31.30
2022-10-31T22:25:12.989Z,25.50
2022-10-31T22:28:04.911Z,25.83
2022-10-31T22:33:37.499Z,26.87
2022-10-31T22:36:27.111Z,27.73
2022-10-31T22:42:04.957Z,25.23
2022-10-31T22:47:37.644Z,27.13
2022-10-31T22:53:08.599Z,24.80
2022-10-31T22:58:44.697Z,26.53
2022-10-31T23:04:24.634Z,27.00
2022-10-31T23:07:15.772Z,23.57
2022-10-31T23:10:07.126Z,33.07
2022-10-31T23:15:40.255Z,29.03
2022-10-31T23:21:17.963Z,31.67
2022-10-31T23:27:11.013Z,38.13
2022-10-31T23:30:02.757Z,28.60
2022-10-31T23:35:32.933Z,28.07
2022-10-31T23:41:04.563Z,29.10
2022-10-31T23:46:39.808Z,35.67
2022-10-31T23:52:16.451Z,27.83
2022-10-31T23:58:07.551Z,31.40
